Hoffman, Oklahoma
Current Conditions -  °F | °C
As of 11:55 AM on Friday 21 Nov 2014 (Local Time) from KOKM Reporting Station
Overcast Overcast  
Wind Chill: 53°   Ceiling: 800
Heat Index: 53°   Visibility: 10mi
Dew Point: 49°   Wind: 16mph
Humidity: 86%   Direction: 140°SE
Pressure: 30.12"   Gusts: 20mph
Location:  35.4729°N, 95.9709°W
Report Text: KOKM 211755Z AUTO 14014G17KT 120V180 10SM OVC008 12/10 A3012 RMK AO2 T01190097 10119 20085
Loading
Personal Weather Stations






























Interactive Weather Map New forecast layout! Learn more

10-Day Weather Forecast

Advertisements
Track Severe Weather on mobile